sensor_id;sensor_type;location;lat;lon;timestamp;temperature;humidity
22071;DHT22;11200;51.488;6.668;2022-12-29T00:02:19;11.20;99.90
22071;DHT22;11200;51.488;6.668;2022-12-29T00:04:45;11.70;99.90
22071;DHT22;11200;51.488;6.668;2022-12-29T00:07:11;11.30;99.90
22071;DHT22;11200;51.488;6.668;2022-12-29T00:09:36;11.50;99.90
22071;DHT22;11200;51.488;6.668;2022-12-29T00:12:03;10.60;99.90
22071;DHT22;11200;51.488;6.668;2022-12-29T00:14:29;10.70;99.90
22071;DHT22;11200;51.488;6.668;2022-12-29T00:17:13;11.10;99.90
22071;DHT22;11200;51.488;6.668;2022-12-29T00:19:39;11.40;99.90
22071;DHT22;11200;51.488;6.668;2022-12-29T00:22:24;10.60;99.90
22071;DHT22;11200;51.488;6.668;2022-12-29T00:25:10;11.40;99.90
22071;DHT22;11200;51.488;6.668;2022-12-29T00:27:54;10.70;99.90
22071;DHT22;11200;51.488;6.668;2022-12-29T00:30:38;11.50;99.90
22071;DHT22;11200;51.488;6.668;2022-12-29T00:33:26;10.80;99.90
22071;DHT22;11200;51.488;6.668;2022-12-29T00:38:50;11.10;99.90
22071;DHT22;11200;51.488;6.668;2022-12-29T00:41:35;10.60;99.90
22071;DHT22;11200;51.488;6.668;2022-12-29T00:44:19;10.90;99.90
22071;DHT22;11200;51.488;6.668;2022-12-29T00:46:45;11.30;99.90
22071;DHT22;11200;51.488;6.668;2022-12-29T00:49:12;11.20;99.90
22071;DHT22;11200;51.488;6.668;2022-12-29T00:54:25;10.60;99.90
22071;DHT22;11200;51.488;6.668;2022-12-29T00:56:53;10.70;99.90
22071;DHT22;11200;51.488;6.668;2022-12-29T00:59:19;11.20;99.90
22071;DHT22;11200;51.488;6.668;2022-12-29T01:01:46;11.20;99.90
22071;DHT22;11200;51.488;6.668;2022-12-29T01:04:12;10.90;99.90
22071;DHT22;11200;51.488;6.668;2022-12-29T01:06:39;10.80;99.90
22071;DHT22;11200;51.488;6.668;2022-12-29T01:09:06;11.10;99.90
22071;DHT22;11200;51.488;6.668;2022-12-29T01:11:50;10.60;99.90
22071;DHT22;11200;51.488;6.668;2022-12-29T01:14:17;10.70;99.90
22071;DHT22;11200;51.488;6.668;2022-12-29T01:16:43;11.20;99.90
22071;DHT22;11200;51.488;6.668;2022-12-29T01:19:09;11.30;99.90
22071;DHT22;11200;51.488;6.668;2022-12-29T01:21:35;11.00;99.90
22071;DHT22;11200;51.488;6.668;2022-12-29T01:24:00;11.20;99.90
22071;DHT22;11200;51.488;6.668;2022-12-29T01:26:26;11.70;99.90
22071;DHT22;11200;51.488;6.668;2022-12-29T01:28:52;10.60;99.90
22071;DHT22;11200;51.488;6.668;2022-12-29T01:31:17;11.50;99.90
22071;DHT22;11200;51.488;6.668;2022-12-29T01:33:43;11.00;99.90
22071;DHT22;11200;51.488;6.668;2022-12-29T01:36:12;11.10;99.90
22071;DHT22;11200;51.488;6.668;2022-12-29T01:38:39;11.50;99.90
22071;DHT22;11200;51.488;6.668;2022-12-29T01:41:06;11.30;99.90
22071;DHT22;11200;51.488;6.668;2022-12-29T01:43:48;10.70;99.90
22071;DHT22;11200;51.488;6.668;2022-12-29T01:46:39;10.70;99.90
22071;DHT22;11200;51.488;6.668;2022-12-29T01:49:12;10.80;99.90
22071;DHT22;11200;51.488;6.668;2022-12-29T01:51:51;10.80;99.90
22071;DHT22;11200;51.488;6.668;2022-12-29T01:54:30;10.80;99.90
22071;DHT22;11200;51.488;6.668;2022-12-29T01:57:01;10.80;99.90
22071;DHT22;11200;51.488;6.668;2022-12-29T01:59:42;11.10;99.90
22071;DHT22;11200;51.488;6.668;2022-12-29T02:02:08;11.00;99.90
22071;DHT22;11200;51.488;6.668;2022-12-29T02:04:35;11.90;99.90
22071;DHT22;11200;51.488;6.668;2022-12-29T02:07:09;10.80;99.90
22071;DHT22;11200;51.488;6.668;2022-12-29T02:09:37;11.40;99.90
22071;DHT22;11200;51.488;6.668;2022-12-29T02:12:02;10.70;99.90
22071;DHT22;11200;51.488;6.668;2022-12-29T02:14:29;10.90;99.90
22071;DHT22;11200;51.488;6.668;2022-12-29T02:17:24;11.70;99.90
22071;DHT22;11200;51.488;6.668;2022-12-29T02:20:19;10.90;99.90
22071;DHT22;11200;51.488;6.668;2022-12-29T02:31:17;11.00;99.90
22071;DHT22;11200;51.488;6.668;2022-12-29T02:42:24;11.00;99.90
22071;DHT22;11200;51.488;6.668;2022-12-29T02:44:59;11.00;99.90
22071;DHT22;11200;51.488;6.668;2022-12-29T02:47:41;11.00;99.90
22071;DHT22;11200;51.488;6.668;2022-12-29T02:50:26;11.00;99.90
22071;DHT22;11200;51.488;6.668;2022-12-29T02:52:59;11.00;99.90
22071;DHT22;11200;51.488;6.668;2022-12-29T02:55:25;11.10;99.90
22071;DHT22;11200;51.488;6.668;2022-12-29T02:58:15;11.00;99.90
22071;DHT22;11200;51.488;6.668;2022-12-29T03:03:53;11.00;99.90
22071;DHT22;11200;51.488;6.668;2022-12-29T03:06:35;11.10;99.90
22071;DHT22;11200;51.488;6.668;2022-12-29T03:09:14;11.50;99.90
22071;DHT22;11200;51.488;6.668;2022-12-29T03:15:24;11.00;99.90
22071;DHT22;11200;51.488;6.668;2022-12-29T03:18:15;11.40;99.90
22071;DHT22;11200;51.488;6.668;2022-12-29T03:20:54;11.10;99.90
22071;DHT22;11200;51.488;6.668;2022-12-29T03:23:23;11.40;99.90
22071;DHT22;11200;51.488;6.668;2022-12-29T03:25:53;10.90;99.90
22071;DHT22;11200;51.488;6.668;2022-12-29T03:28:31;11.10;99.90
22071;DHT22;11200;51.488;6.668;2022-12-29T03:31:00;11.10;99.90
22071;DHT22;11200;51.488;6.668;2022-12-29T03:33:29;11.30;99.90
22071;DHT22;11200;51.488;6.668;2022-12-29T03:36:07;11.20;99.90
22071;DHT22;11200;51.488;6.668;2022-12-29T03:38:56;11.10;99.90
22071;DHT22;11200;51.488;6.668;2022-12-29T03:41:27;10.90;99.90
22071;DHT22;11200;51.488;6.668;2022-12-29T03:43:54;11.10;99.90
22071;DHT22;11200;51.488;6.668;2022-12-29T03:46:19;11.80;99.90
22071;DHT22;11200;51.488;6.668;2022-12-29T03:48:45;11.20;99.90
22071;DHT22;11200;51.488;6.668;2022-12-29T03:51:10;11.60;99.90
22071;DHT22;11200;51.488;6.668;2022-12-29T03:53:36;11.00;99.90
22071;DHT22;11200;51.488;6.668;2022-12-29T03:56:02;11.70;99.90
22071;DHT22;11200;51.488;6.668;2022-12-29T03:58:27;11.10;99.90
22071;DHT22;11200;51.488;6.668;2022-12-29T04:00:53;11.40;99.90
22071;DHT22;11200;51.488;6.668;2022-12-29T04:03:18;11.20;99.90
22071;DHT22;11200;51.488;6.668;2022-12-29T04:05:44;11.30;99.90
22071;DHT22;11200;51.488;6.668;2022-12-29T04:08:09;10.90;99.90
22071;DHT22;11200;51.488;6.668;2022-12-29T04:10:35;11.40;99.90
22071;DHT22;11200;51.488;6.668;2022-12-29T04:13:01;11.70;99.90
22071;DHT22;11200;51.488;6.668;2022-12-29T04:15:26;11.10;99.90
22071;DHT22;11200;51.488;6.668;2022-12-29T04:17:52;11.00;99.90
22071;DHT22;11200;51.488;6.668;2022-12-29T04:20:17;11.50;99.90
22071;DHT22;11200;51.488;6.668;2022-12-29T04:23:06;11.10;99.90
22071;DHT22;11200;51.488;6.668;2022-12-29T04:25:32;10.90;99.90
22071;DHT22;11200;51.488;6.668;2022-12-29T04:27:58;11.00;99.90
22071;DHT22;11200;51.488;6.668;2022-12-29T04:30:23;11.80;99.90
22071;DHT22;11200;51.488;6.668;2022-12-29T04:32:49;11.00;99.90
22071;DHT22;11200;51.488;6.668;2022-12-29T04:35:15;10.90;99.90
22071;DHT22;11200;51.488;6.668;2022-12-29T04:37:40;11.00;99.90
22071;DHT22;11200;51.488;6.668;2022-12-29T04:40:09;11.20;99.90
22071;DHT22;11200;51.488;6.668;2022-12-29T04:42:35;11.00;99.90
22071;DHT22;11200;51.488;6.668;2022-12-29T04:45:01;12.10;99.90
22071;DHT22;11200;51.488;6.668;2022-12-29T04:47:26;11.60;99.90
22071;DHT22;11200;51.488;6.668;2022-12-29T04:49:52;10.90;99.90
22071;DHT22;11200;51.488;6.668;2022-12-29T04:52:18;11.00;99.90
22071;DHT22;11200;51.488;6.668;2022-12-29T04:54:44;11.20;99.90
22071;DHT22;11200;51.488;6.668;2022-12-29T04:57:09;11.00;99.90
22071;DHT22;11200;51.488;6.668;2022-12-29T04:59:35;12.20;99.90
22071;DHT22;11200;51.488;6.668;2022-12-29T05:02:00;11.00;99.90
22071;DHT22;11200;51.488;6.668;2022-12-29T05:04:26;11.30;99.90
22071;DHT22;11200;51.488;6.668;2022-12-29T05:06:51;10.90;99.90
22071;DHT22;11200;51.488;6.668;2022-12-29T05:09:17;10.90;99.90
22071;DHT22;11200;51.488;6.668;2022-12-29T05:11:43;11.30;99.90
22071;DHT22;11200;51.488;6.668;2022-12-29T05:14:08;10.90;99.90
22071;DHT22;11200;51.488;6.668;2022-12-29T05:16:34;11.30;99.90
22071;DHT22;11200;51.488;6.668;2022-12-29T05:18:59;12.00;99.90
22071;DHT22;11200;51.488;6.668;2022-12-29T05:21:25;11.30;99.90
22071;DHT22;11200;51.488;6.668;2022-12-29T05:23:50;10.90;99.90
22071;DHT22;11200;51.488;6.668;2022-12-29T05:26:18;11.10;99.90
22071;DHT22;11200;51.488;6.668;2022-12-29T05:28:44;10.60;99.90
22071;DHT22;11200;51.488;6.668;2022-12-29T05:31:09;11.40;99.90
22071;DHT22;11200;51.488;6.668;2022-12-29T05:33:35;11.40;99.90
22071;DHT22;11200;51.488;6.668;2022-12-29T05:36:05;10.60;99.90
22071;DHT22;11200;51.488;6.668;2022-12-29T05:38:31;10.60;99.90
22071;DHT22;11200;51.488;6.668;2022-12-29T05:40:57;10.90;99.90
22071;DHT22;11200;51.488;6.668;2022-12-29T05:43:22;10.20;99.90
22071;DHT22;11200;51.488;6.668;2022-12-29T05:45:48;10.50;99.90
22071;DHT22;11200;51.488;6.668;2022-12-29T05:48:15;10.80;99.90
22071;DHT22;11200;51.488;6.668;2022-12-29T05:50:40;10.40;99.90
22071;DHT22;11200;51.488;6.668;2022-12-29T05:53:06;10.40;99.90
22071;DHT22;11200;51.488;6.668;2022-12-29T05:55:32;10.20;99.90
22071;DHT22;11200;51.488;6.668;2022-12-29T05:57:57;10.50;99.90
22071;DHT22;11200;51.488;6.668;2022-12-29T06:00:23;11.10;99.90
22071;DHT22;11200;51.488;6.668;2022-12-29T06:02:49;11.20;99.90
22071;DHT22;11200;51.488;6.668;2022-12-29T06:05:15;10.80;99.90
22071;DHT22;11200;51.488;6.668;2022-12-29T06:07:40;10.60;99.90
22071;DHT22;11200;51.488;6.668;2022-12-29T06:10:07;11.00;99.90
22071;DHT22;11200;51.488;6.668;2022-12-29T06:12:32;10.30;99.90
22071;DHT22;11200;51.488;6.668;2022-12-29T06:14:58;10.10;99.90
22071;DHT22;11200;51.488;6.668;2022-12-29T06:17:24;11.10;99.90
22071;DHT22;11200;51.488;6.668;2022-12-29T06:19:49;10.40;99.90
22071;DHT22;11200;51.488;6.668;2022-12-29T06:22:20;11.20;99.90
22071;DHT22;11200;51.488;6.668;2022-12-29T06:24:46;11.00;99.90
22071;DHT22;11200;51.488;6.668;2022-12-29T06:27:11;11.20;99.90
22071;DHT22;11200;51.488;6.668;2022-12-29T06:29:38;10.60;99.90
22071;DHT22;11200;51.488;6.668;2022-12-29T06:32:06;10.10;99.90
22071;DHT22;11200;51.488;6.668;2022-12-29T06:34:31;10.90;99.90
22071;DHT22;11200;51.488;6.668;2022-12-29T06:36:57;10.80;99.90
22071;DHT22;11200;51.488;6.668;2022-12-29T06:39:23;11.00;99.90
22071;DHT22;11200;51.488;6.668;2022-12-29T06:41:52;10.20;99.90
22071;DHT22;11200;51.488;6.668;2022-12-29T06:44:18;10.70;99.90
22071;DHT22;11200;51.488;6.668;2022-12-29T06:46:43;10.20;99.90
22071;DHT22;11200;51.488;6.668;2022-12-29T06:49:09;10.50;99.90
22071;DHT22;11200;51.488;6.668;2022-12-29T06:51:34;10.20;99.90
22071;DHT22;11200;51.488;6.668;2022-12-29T06:54:00;10.80;99.90
22071;DHT22;11200;51.488;6.668;2022-12-29T06:56:25;10.70;99.90
22071;DHT22;11200;51.488;6.668;2022-12-29T06:58:51;11.00;99.90
22071;DHT22;11200;51.488;6.668;2022-12-29T07:01:17;10.40;99.90
22071;DHT22;11200;51.488;6.668;2022-12-29T07:03:42;10.40;99.90
22071;DHT22;11200;51.488;6.668;2022-12-29T07:06:08;11.10;99.90
22071;DHT22;11200;51.488;6.668;2022-12-29T07:08:34;10.70;99.90
22071;DHT22;11200;51.488;6.668;2022-12-29T07:10:59;10.60;99.90
22071;DHT22;11200;51.488;6.668;2022-12-29T07:13:25;10.90;99.90
22071;DHT22;11200;51.488;6.668;2022-12-29T07:15:50;10.20;99.90
22071;DHT22;11200;51.488;6.668;2022-12-29T07:18:16;10.80;99.90
22071;DHT22;11200;51.488;6.668;2022-12-29T07:20:41;10.40;99.90
22071;DHT22;11200;51.488;6.668;2022-12-29T07:23:07;9.90;99.90
22071;DHT22;11200;51.488;6.668;2022-12-29T07:25:35;11.20;99.90
22071;DHT22;11200;51.488;6.668;2022-12-29T07:28:02;10.70;99.90
22071;DHT22;11200;51.488;6.668;2022-12-29T07:30:27;10.50;99.90
22071;DHT22;11200;51.488;6.668;2022-12-29T07:32:53;10.50;99.90
22071;DHT22;11200;51.488;6.668;2022-12-29T07:35:19;10.60;99.90
22071;DHT22;11200;51.488;6.668;2022-12-29T07:37:44;10.80;99.90
22071;DHT22;11200;51.488;6.668;2022-12-29T07:40:10;10.80;99.90
22071;DHT22;11200;51.488;6.668;2022-12-29T07:42:36;10.50;99.90
22071;DHT22;11200;51.488;6.668;2022-12-29T07:45:02;10.40;99.90
22071;DHT22;11200;51.488;6.668;2022-12-29T07:47:28;10.30;99.90
22071;DHT22;11200;51.488;6.668;2022-12-29T07:49:53;11.30;99.90
22071;DHT22;11200;51.488;6.668;2022-12-29T07:52:19;10.70;99.90
22071;DHT22;11200;51.488;6.668;2022-12-29T07:54:44;11.50;99.90
22071;DHT22;11200;51.488;6.668;2022-12-29T07:57:10;10.40;99.90
22071;DHT22;11200;51.488;6.668;2022-12-29T07:59:36;9.90;99.90
22071;DHT22;11200;51.488;6.668;2022-12-29T08:02:01;10.50;99.90
22071;DHT22;11200;51.488;6.668;2022-12-29T08:04:27;9.80;99.90
22071;DHT22;11200;51.488;6.668;2022-12-29T08:06:52;10.90;99.90
22071;DHT22;11200;51.488;6.668;2022-12-29T08:09:18;11.00;99.90
22071;DHT22;11200;51.488;6.668;2022-12-29T08:11:44;10.20;99.90
22071;DHT22;11200;51.488;6.668;2022-12-29T08:14:10;10.10;99.90
22071;DHT22;11200;51.488;6.668;2022-12-29T08:16:38;10.00;99.90
22071;DHT22;11200;51.488;6.668;2022-12-29T08:19:04;11.00;99.90
22071;DHT22;11200;51.488;6.668;2022-12-29T08:21:30;11.40;99.90
22071;DHT22;11200;51.488;6.668;2022-12-29T08:23:56;11.00;99.90
22071;DHT22;11200;51.488;6.668;2022-12-29T08:26:22;10.50;99.90
22071;DHT22;11200;51.488;6.668;2022-12-29T08:28:48;10.70;99.90
22071;DHT22;11200;51.488;6.668;2022-12-29T08:31:13;11.00;99.90
22071;DHT22;11200;51.488;6.668;2022-12-29T08:33:39;10.20;99.90
22071;DHT22;11200;51.488;6.668;2022-12-29T08:36:06;11.60;99.90
22071;DHT22;11200;51.488;6.668;2022-12-29T08:38:32;10.20;99.90
22071;DHT22;11200;51.488;6.668;2022-12-29T08:40:59;10.20;99.90
22071;DHT22;11200;51.488;6.668;2022-12-29T08:43:27;10.20;99.90
22071;DHT22;11200;51.488;6.668;2022-12-29T08:45:52;10.70;99.90
22071;DHT22;11200;51.488;6.668;2022-12-29T08:48:18;10.20;99.90
22071;DHT22;11200;51.488;6.668;2022-12-29T08:50:45;10.20;99.90
22071;DHT22;11200;51.488;6.668;2022-12-29T08:53:11;10.20;99.90
22071;DHT22;11200;51.488;6.668;2022-12-29T08:55:40;10.50;99.90
22071;DHT22;11200;51.488;6.668;2022-12-29T08:58:33;10.20;99.90
22071;DHT22;11200;51.488;6.668;2022-12-29T09:01:22;11.00;99.90
22071;DHT22;11200;51.488;6.668;2022-12-29T09:03:48;10.20;99.90
22071;DHT22;11200;51.488;6.668;2022-12-29T09:06:20;10.40;99.90
22071;DHT22;11200;51.488;6.668;2022-12-29T09:08:53;11.80;99.90
22071;DHT22;11200;51.488;6.668;2022-12-29T09:11:21;10.20;99.90
22071;DHT22;11200;51.488;6.668;2022-12-29T09:13:47;11.60;99.90
22071;DHT22;11200;51.488;6.668;2022-12-29T09:16:14;10.90;99.90
22071;DHT22;11200;51.488;6.668;2022-12-29T09:18:40;10.30;99.90
22071;DHT22;11200;51.488;6.668;2022-12-29T09:21:09;10.90;99.90
22071;DHT22;11200;51.488;6.668;2022-12-29T09:23:35;10.40;99.90
22071;DHT22;11200;51.488;6.668;2022-12-29T09:26:02;10.40;99.90
22071;DHT22;11200;51.488;6.668;2022-12-29T09:28:28;10.40;99.90
22071;DHT22;11200;51.488;6.668;2022-12-29T09:30:54;10.30;99.90
22071;DHT22;11200;51.488;6.668;2022-12-29T09:33:27;11.10;99.90
22071;DHT22;11200;51.488;6.668;2022-12-29T09:35:56;10.30;99.90
22071;DHT22;11200;51.488;6.668;2022-12-29T09:38:22;10.90;99.90
22071;DHT22;11200;51.488;6.668;2022-12-29T09:40:53;11.60;99.90
22071;DHT22;11200;51.488;6.668;2022-12-29T09:51:39;10.50;99.90
22071;DHT22;11200;51.488;6.668;2022-12-29T09:54:31;10.70;99.90
22071;DHT22;11200;51.488;6.668;2022-12-29T09:56:59;10.50;99.90
22071;DHT22;11200;51.488;6.668;2022-12-29T09:59:39;10.60;99.90
22071;DHT22;11200;51.488;6.668;2022-12-29T10:02:42;10.50;99.90
22071;DHT22;11200;51.488;6.668;2022-12-29T10:05:35;10.70;99.90
22071;DHT22;11200;51.488;6.668;2022-12-29T10:10:55;10.60;99.90
22071;DHT22;11200;51.488;6.668;2022-12-29T10:13:30;10.70;99.90
22071;DHT22;11200;51.488;6.668;2022-12-29T10:16:23;10.70;99.90
22071;DHT22;11200;51.488;6.668;2022-12-29T10:22:05;11.00;99.90
22071;DHT22;11200;51.488;6.668;2022-12-29T10:24:34;11.10;99.90
22071;DHT22;11200;51.488;6.668;2022-12-29T10:27:09;11.20;99.90
22071;DHT22;11200;51.488;6.668;2022-12-29T10:29:44;11.80;99.90
22071;DHT22;11200;51.488;6.668;2022-12-29T10:32:31;11.10;99.90
22071;DHT22;11200;51.488;6.668;2022-12-29T10:35:20;11.10;99.90
22071;DHT22;11200;51.488;6.668;2022-12-29T10:40:27;11.60;99.90
22071;DHT22;11200;51.488;6.668;2022-12-29T10:42:55;11.00;99.90
22071;DHT22;11200;51.488;6.668;2022-12-29T10:45:29;11.70;99.90
22071;DHT22;11200;51.488;6.668;2022-12-29T10:48:18;11.80;99.90
22071;DHT22;11200;51.488;6.668;2022-12-29T10:50:46;10.60;99.90
22071;DHT22;11200;51.488;6.668;2022-12-29T10:53:20;11.60;99.90
22071;DHT22;11200;51.488;6.668;2022-12-29T10:55:46;11.10;99.90
22071;DHT22;11200;51.488;6.668;2022-12-29T10:58:13;11.00;99.90
22071;DHT22;11200;51.488;6.668;2022-12-29T11:00:39;11.40;99.90
22071;DHT22;11200;51.488;6.668;2022-12-29T11:08:13;10.80;99.90
22071;DHT22;11200;51.488;6.668;2022-12-29T11:10:42;11.10;99.90
22071;DHT22;11200;51.488;6.668;2022-12-29T11:13:24;11.50;99.90
22071;DHT22;11200;51.488;6.668;2022-12-29T11:15:53;11.30;99.90
22071;DHT22;11200;51.488;6.668;2022-12-29T11:21:07;11.10;99.90
22071;DHT22;11200;51.488;6.668;2022-12-29T11:23:58;11.70;99.90
22071;DHT22;11200;51.488;6.668;2022-12-29T11:26:25;11.10;99.90
22071;DHT22;11200;51.488;6.668;2022-12-29T11:31:49;10.80;99.90
22071;DHT22;11200;51.488;6.668;2022-12-29T11:34:32;11.30;99.90
22071;DHT22;11200;51.488;6.668;2022-12-29T11:37:10;11.30;99.90
22071;DHT22;11200;51.488;6.668;2022-12-29T11:42:16;11.30;99.90
22071;DHT22;11200;51.488;6.668;2022-12-29T11:44:45;11.60;99.90
22071;DHT22;11200;51.488;6.668;2022-12-29T11:47:21;11.20;99.90
22071;DHT22;11200;51.488;6.668;2022-12-29T11:49:56;11.90;99.90
22071;DHT22;11200;51.488;6.668;2022-12-29T11:52:25;11.30;99.90
22071;DHT22;11200;51.488;6.668;2022-12-29T11:54:52;12.20;99.90
22071;DHT22;11200;51.488;6.668;2022-12-29T11:57:21;11.70;99.90
22071;DHT22;11200;51.488;6.668;2022-12-29T11:59:52;12.40;99.90
22071;DHT22;11200;51.488;6.668;2022-12-29T12:02:22;11.20;99.90
22071;DHT22;11200;51.488;6.668;2022-12-29T12:04:53;11.30;99.90
22071;DHT22;11200;51.488;6.668;2022-12-29T12:07:46;11.70;99.90
22071;DHT22;11200;51.488;6.668;2022-12-29T12:10:21;11.20;99.90
22071;DHT22;11200;51.488;6.668;2022-12-29T12:12:53;11.20;99.90
22071;DHT22;11200;51.488;6.668;2022-12-29T12:15:40;11.40;99.90
22071;DHT22;11200;51.488;6.668;2022-12-29T12:18:39;11.50;99.90
22071;DHT22;11200;51.488;6.668;2022-12-29T12:21:20;11.20;99.90
22071;DHT22;11200;51.488;6.668;2022-12-29T12:26:57;11.20;99.90
22071;DHT22;11200;51.488;6.668;2022-12-29T12:29:46;11.90;99.90
22071;DHT22;11200;51.488;6.668;2022-12-29T12:32:58;11.20;99.90
22071;DHT22;11200;51.488;6.668;2022-12-29T12:43:41;11.20;99.90
22071;DHT22;11200;51.488;6.668;2022-12-29T12:52:04;11.10;99.90
22071;DHT22;11200;51.488;6.668;2022-12-29T13:00:13;11.20;99.90
22071;DHT22;11200;51.488;6.668;2022-12-29T13:03:13;11.00;99.90
22071;DHT22;11200;51.488;6.668;2022-12-29T13:16:24;11.00;99.90
22071;DHT22;11200;51.488;6.668;2022-12-29T13:19:11;11.00;99.90
22071;DHT22;11200;51.488;6.668;2022-12-29T13:24:36;11.00;99.90
22071;DHT22;11200;51.488;6.668;2022-12-29T13:35:31;11.00;99.90
22071;DHT22;11200;51.488;6.668;2022-12-29T13:38:18;11.10;99.90
22071;DHT22;11200;51.488;6.668;2022-12-29T13:40:49;11.60;99.90
22071;DHT22;11200;51.488;6.668;2022-12-29T13:43:16;11.20;99.90
22071;DHT22;11200;51.488;6.668;2022-12-29T13:45:44;11.10;99.90
22071;DHT22;11200;51.488;6.668;2022-12-29T13:48:42;11.10;99.90
22071;DHT22;11200;51.488;6.668;2022-12-29T13:51:14;11.10;99.90
22071;DHT22;11200;51.488;6.668;2022-12-29T13:56:34;11.10;99.90
22071;DHT22;11200;51.488;6.668;2022-12-29T14:01:35;11.00;99.90
22071;DHT22;11200;51.488;6.668;2022-12-29T14:04:12;11.20;99.90
22071;DHT22;11200;51.488;6.668;2022-12-29T14:06:38;11.40;99.90
22071;DHT22;11200;51.488;6.668;2022-12-29T14:09:27;11.40;99.90
22071;DHT22;11200;51.488;6.668;2022-12-29T14:11:52;11.20;99.90
22071;DHT22;11200;51.488;6.668;2022-12-29T14:14:28;11.60;99.90
22071;DHT22;11200;51.488;6.668;2022-12-29T14:17:11;11.30;99.90
22071;DHT22;11200;51.488;6.668;2022-12-29T14:19:40;10.70;99.90
22071;DHT22;11200;51.488;6.668;2022-12-29T14:22:07;10.70;99.90
22071;DHT22;11200;51.488;6.668;2022-12-29T14:33:00;10.70;99.90
22071;DHT22;11200;51.488;6.668;2022-12-29T14:35:42;10.80;99.90
22071;DHT22;11200;51.488;6.668;2022-12-29T14:38:37;11.00;99.90
22071;DHT22;11200;51.488;6.668;2022-12-29T14:41:18;10.80;99.90
22071;DHT22;11200;51.488;6.668;2022-12-29T14:44:37;10.70;99.90
22071;DHT22;11200;51.488;6.668;2022-12-29T14:49:30;10.70;99.90
22071;DHT22;11200;51.488;6.668;2022-12-29T14:57:19;11.00;99.90
22071;DHT22;11200;51.488;6.668;2022-12-29T14:59:46;10.40;99.90
22071;DHT22;11200;51.488;6.668;2022-12-29T15:02:17;10.80;99.90
22071;DHT22;11200;51.488;6.668;2022-12-29T15:04:44;10.90;99.90
22071;DHT22;11200;51.488;6.668;2022-12-29T15:07:12;11.10;99.90
22071;DHT22;11200;51.488;6.668;2022-12-29T15:09:53;10.20;99.90
22071;DHT22;11200;51.488;6.668;2022-12-29T15:12:21;10.60;99.90
22071;DHT22;11200;51.488;6.668;2022-12-29T15:14:54;11.00;99.90
22071;DHT22;11200;51.488;6.668;2022-12-29T15:17:31;10.60;99.90
22071;DHT22;11200;51.488;6.668;2022-12-29T15:20:03;10.60;99.90
22071;DHT22;11200;51.488;6.668;2022-12-29T15:22:44;11.10;99.90
22071;DHT22;11200;51.488;6.668;2022-12-29T15:25:15;10.60;99.90
22071;DHT22;11200;51.488;6.668;2022-12-29T15:27:41;10.50;99.90
22071;DHT22;11200;51.488;6.668;2022-12-29T15:30:12;10.90;99.90
22071;DHT22;11200;51.488;6.668;2022-12-29T15:32:48;10.50;99.90
22071;DHT22;11200;51.488;6.668;2022-12-29T15:35:35;10.80;99.90
22071;DHT22;11200;51.488;6.668;2022-12-29T15:38:14;10.50;99.90
22071;DHT22;11200;51.488;6.668;2022-12-29T15:40:43;11.00;99.90
22071;DHT22;11200;51.488;6.668;2022-12-29T15:45:54;10.40;99.90
22071;DHT22;11200;51.488;6.668;2022-12-29T15:48:23;11.00;99.90
22071;DHT22;11200;51.488;6.668;2022-12-29T15:50:49;10.30;99.90
22071;DHT22;11200;51.488;6.668;2022-12-29T15:53:22;10.40;99.90
22071;DHT22;11200;51.488;6.668;2022-12-29T15:55:59;10.50;99.90
22071;DHT22;11200;51.488;6.668;2022-12-29T15:58:28;10.40;99.90
22071;DHT22;11200;51.488;6.668;2022-12-29T16:00:56;10.20;99.90
22071;DHT22;11200;51.488;6.668;2022-12-29T16:03:24;10.10;99.90
22071;DHT22;11200;51.488;6.668;2022-12-29T16:05:56;10.70;99.90
22071;DHT22;11200;51.488;6.668;2022-12-29T16:08:31;10.60;99.90
22071;DHT22;11200;51.488;6.668;2022-12-29T16:10:59;10.30;99.90
22071;DHT22;11200;51.488;6.668;2022-12-29T16:13:34;10.00;99.90
22071;DHT22;11200;51.488;6.668;2022-12-29T16:16:12;10.20;99.90
22071;DHT22;11200;51.488;6.668;2022-12-29T16:18:39;10.20;99.90
22071;DHT22;11200;51.488;6.668;2022-12-29T16:21:11;10.30;99.90
22071;DHT22;11200;51.488;6.668;2022-12-29T16:23:41;10.10;99.90
22071;DHT22;11200;51.488;6.668;2022-12-29T16:26:16;9.90;99.90
22071;DHT22;11200;51.488;6.668;2022-12-29T16:28:43;10.20;99.90
22071;DHT22;11200;51.488;6.668;2022-12-29T16:31:58;10.10;99.90
22071;DHT22;11200;51.488;6.668;2022-12-29T16:37:03;9.90;99.90
22071;DHT22;11200;51.488;6.668;2022-12-29T16:39:39;10.50;99.90
22071;DHT22;11200;51.488;6.668;2022-12-29T16:42:43;10.10;99.90
22071;DHT22;11200;51.488;6.668;2022-12-29T16:50:30;9.90;99.90
22071;DHT22;11200;51.488;6.668;2022-12-29T16:52:56;9.90;99.90
22071;DHT22;11200;51.488;6.668;2022-12-29T16:55:22;9.70;99.90
22071;DHT22;11200;51.488;6.668;2022-12-29T16:57:49;9.80;99.90
22071;DHT22;11200;51.488;6.668;2022-12-29T17:00:21;9.80;99.90
22071;DHT22;11200;51.488;6.668;2022-12-29T17:02:56;9.70;99.90
22071;DHT22;11200;51.488;6.668;2022-12-29T17:05:23;9.70;99.90
22071;DHT22;11200;51.488;6.668;2022-12-29T17:07:49;9.40;99.90
22071;DHT22;11200;51.488;6.668;2022-12-29T17:10:16;10.50;99.90
22071;DHT22;11200;51.488;6.668;2022-12-29T17:12:47;10.30;99.90
22071;DHT22;11200;51.488;6.668;2022-12-29T17:15:25;9.80;99.90
22071;DHT22;11200;51.488;6.668;2022-12-29T17:17:54;10.70;99.90
22071;DHT22;11200;51.488;6.668;2022-12-29T17:20:27;9.50;99.90
22071;DHT22;11200;51.488;6.668;2022-12-29T17:22:53;9.40;99.90
22071;DHT22;11200;51.488;6.668;2022-12-29T17:30:28;9.20;99.90
22071;DHT22;11200;51.488;6.668;2022-12-29T17:33:13;9.30;99.90
22071;DHT22;11200;51.488;6.668;2022-12-29T17:35:43;9.40;99.90
22071;DHT22;11200;51.488;6.668;2022-12-29T17:38:25;10.10;99.90
22071;DHT22;11200;51.488;6.668;2022-12-29T17:40:52;9.10;99.90
22071;DHT22;11200;51.488;6.668;2022-12-29T17:43:18;9.90;99.90
22071;DHT22;11200;51.488;6.668;2022-12-29T17:45:49;8.50;99.90
22071;DHT22;11200;51.488;6.668;2022-12-29T17:48:20;8.90;99.90
22071;DHT22;11200;51.488;6.668;2022-12-29T17:50:50;9.40;99.90
22071;DHT22;11200;51.488;6.668;2022-12-29T17:53:37;10.10;99.90
22071;DHT22;11200;51.488;6.668;2022-12-29T17:56:02;10.10;99.90
22071;DHT22;11200;51.488;6.668;2022-12-29T17:58:31;8.90;99.90
22071;DHT22;11200;51.488;6.668;2022-12-29T18:00:59;8.80;99.90
22071;DHT22;11200;51.488;6.668;2022-12-29T18:05:55;8.70;99.90
22071;DHT22;11200;51.488;6.668;2022-12-29T18:08:24;8.80;99.90
22071;DHT22;11200;51.488;6.668;2022-12-29T18:10:51;8.20;99.90
22071;DHT22;11200;51.488;6.668;2022-12-29T18:13:29;9.60;99.90
22071;DHT22;11200;51.488;6.668;2022-12-29T18:15:59;9.60;99.90
22071;DHT22;11200;51.488;6.668;2022-12-29T18:18:27;9.00;99.90
22071;DHT22;11200;51.488;6.668;2022-12-29T18:20:58;8.40;99.90
22071;DHT22;11200;51.488;6.668;2022-12-29T18:23:27;9.60;99.90